sensor_id;sensor_type;location;lat;lon;timestamp;pressure;altitude;pressure_sealevel;temperature;humidity
27705;BME280;15109;50.992;6.918;2022-10-15T00:01:53;100105.91;;;14.36;100.00
27705;BME280;15109;50.992;6.918;2022-10-15T00:05:14;100114.56;;;14.33;100.00
27705;BME280;15109;50.992;6.918;2022-10-15T00:08:35;100112.47;;;14.28;100.00
27705;BME280;15109;50.992;6.918;2022-10-15T00:11:56;100107.44;;;14.25;100.00
27705;BME280;15109;50.992;6.918;2022-10-15T00:15:17;100110.81;;;14.27;100.00
27705;BME280;15109;50.992;6.918;2022-10-15T00:18:39;100111.66;;;14.28;100.00
27705;BME280;15109;50.992;6.918;2022-10-15T00:22:00;100104.63;;;14.57;100.00
27705;BME280;15109;50.992;6.918;2022-10-15T00:25:22;100097.59;;;14.61;100.00
27705;BME280;15109;50.992;6.918;2022-10-15T00:28:43;100094.84;;;14.61;100.00
27705;BME280;15109;50.992;6.918;2022-10-15T00:32:04;100089.34;;;14.61;100.00
27705;BME280;15109;50.992;6.918;2022-10-15T00:35:25;100079.34;;;14.66;100.00
27705;BME280;15109;50.992;6.918;2022-10-15T00:38:47;100082.09;;;14.66;100.00
27705;BME280;15109;50.992;6.918;2022-10-15T00:42:09;100070.94;;;14.61;100.00
27705;BME280;15109;50.992;6.918;2022-10-15T00:45:34;100083.63;;;14.62;100.00
27705;BME280;15109;50.992;6.918;2022-10-15T00:49:27;100075.13;;;14.64;100.00
27705;BME280;15109;50.992;6.918;2022-10-15T00:56:20;100066.72;;;14.59;100.00
27705;BME280;15109;50.992;6.918;2022-10-15T00:59:47;100080.47;;;14.59;100.00
27705;BME280;15109;50.992;6.918;2022-10-15T01:03:09;100085.84;;;14.53;100.00
27705;BME280;15109;50.992;6.918;2022-10-15T01:06:33;100084.16;;;14.52;100.00
27705;BME280;15109;50.992;6.918;2022-10-15T01:09:56;100080.78;;;14.50;100.00
27705;BME280;15109;50.992;6.918;2022-10-15T01:13:27;100099.44;;;14.48;100.00
27705;BME280;15109;50.992;6.918;2022-10-15T01:17:03;100089.94;;;14.44;100.00
27705;BME280;15109;50.992;6.918;2022-10-15T01:32:22;100094.06;;;14.35;100.00
27705;BME280;15109;50.992;6.918;2022-10-15T01:35:51;100099.16;;;14.32;100.00
27705;BME280;15109;50.992;6.918;2022-10-15T01:39:29;100105.50;;;14.32;100.00
27705;BME280;15109;50.992;6.918;2022-10-15T01:42:57;100102.97;;;14.31;100.00
27705;BME280;15109;50.992;6.918;2022-10-15T01:46:35;100105.72;;;14.31;100.00
27705;BME280;15109;50.992;6.918;2022-10-15T01:50:04;100105.06;;;14.29;100.00
27705;BME280;15109;50.992;6.918;2022-10-15T01:53:27;100101.44;;;14.35;100.00
27705;BME280;15109;50.992;6.918;2022-10-15T01:56:50;100103.81;;;14.31;100.00
27705;BME280;15109;50.992;6.918;2022-10-15T02:00:15;100095.75;;;14.30;100.00
27705;BME280;15109;50.992;6.918;2022-10-15T02:03:51;100087.28;;;14.31;100.00
27705;BME280;15109;50.992;6.918;2022-10-15T02:07:23;100083.50;;;14.32;100.00
27705;BME280;15109;50.992;6.918;2022-10-15T02:10:54;100082.00;;;14.30;100.00
27705;BME280;15109;50.992;6.918;2022-10-15T02:14:28;100086.47;;;14.31;100.00
27705;BME280;15109;50.992;6.918;2022-10-15T02:25:08;100082.31;;;14.22;100.00
27705;BME280;15109;50.992;6.918;2022-10-15T02:28:32;100081.94;;;14.18;100.00
27705;BME280;15109;50.992;6.918;2022-10-15T02:31:56;100084.69;;;14.18;100.00
27705;BME280;15109;50.992;6.918;2022-10-15T02:35:19;100098.41;;;14.18;100.00
27705;BME280;15109;50.992;6.918;2022-10-15T02:38:43;100096.69;;;14.24;100.00
27705;BME280;15109;50.992;6.918;2022-10-15T02:42:05;100087.13;;;14.26;100.00
27705;BME280;15109;50.992;6.918;2022-10-15T02:45:26;100095.00;;;14.23;100.00
27705;BME280;15109;50.992;6.918;2022-10-15T02:48:47;100091.41;;;14.22;100.00
27705;BME280;15109;50.992;6.918;2022-10-15T02:52:11;100091.41;;;14.22;100.00
27705;BME280;15109;50.992;6.918;2022-10-15T02:55:33;100094.16;;;14.22;100.00
27705;BME280;15109;50.992;6.918;2022-10-15T02:58:54;100093.94;;;14.24;100.00
27705;BME280;15109;50.992;6.918;2022-10-15T03:02:15;100105.16;;;14.22;100.00
27705;BME280;15109;50.992;6.918;2022-10-15T03:05:36;100092.00;;;14.24;100.00
27705;BME280;15109;50.992;6.918;2022-10-15T03:08:57;100085.06;;;14.22;100.00
27705;BME280;15109;50.992;6.918;2022-10-15T03:12:20;100081.00;;;14.24;100.00
27705;BME280;15109;50.992;6.918;2022-10-15T03:15:43;100089.50;;;14.23;100.00
27705;BME280;15109;50.992;6.918;2022-10-15T03:19:04;100073.38;;;14.26;100.00
27705;BME280;15109;50.992;6.918;2022-10-15T03:22:25;100088.19;;;14.25;100.00
27705;BME280;15109;50.992;6.918;2022-10-15T03:25:48;100082.69;;;14.25;100.00
27705;BME280;15109;50.992;6.918;2022-10-15T03:29:15;100072.53;;;14.26;100.00
27705;BME280;15109;50.992;6.918;2022-10-15T03:32:44;100076.81;;;14.22;100.00
27705;BME280;15109;50.992;6.918;2022-10-15T03:36:06;100083.38;;;14.21;100.00
27705;BME280;15109;50.992;6.918;2022-10-15T03:39:28;100084.03;;;14.16;100.00
27705;BME280;15109;50.992;6.918;2022-10-15T03:42:54;100076.03;;;14.15;100.00
27705;BME280;15109;50.992;6.918;2022-10-15T03:46:21;100069.25;;;14.17;100.00
27705;BME280;15109;50.992;6.918;2022-10-15T03:49:43;100068.38;;;14.17;100.00
27705;BME280;15109;50.992;6.918;2022-10-15T03:53:05;100064.19;;;14.14;100.00
27705;BME280;15109;50.992;6.918;2022-10-15T03:56:27;100080.31;;;14.11;100.00
27705;BME280;15109;50.992;6.918;2022-10-15T04:00:00;100082.22;;;14.10;100.00
27705;BME280;15109;50.992;6.918;2022-10-15T04:03:25;100087.72;;;14.10;100.00
27705;BME280;15109;50.992;6.918;2022-10-15T04:06:46;100085.69;;;14.24;100.00
27705;BME280;15109;50.992;6.918;2022-10-15T04:10:10;100083.66;;;14.13;100.00
27705;BME280;15109;50.992;6.918;2022-10-15T04:13:34;100087.47;;;14.12;100.00
27705;BME280;15109;50.992;6.918;2022-10-15T04:16:55;100089.53;;;14.16;100.00
27705;BME280;15109;50.992;6.918;2022-10-15T04:20:19;100095.03;;;14.16;100.00
27705;BME280;15109;50.992;6.918;2022-10-15T04:23:40;100089.50;;;14.23;100.00
27705;BME280;15109;50.992;6.918;2022-10-15T04:27:16;100087.50;;;14.30;100.00
27705;BME280;15109;50.992;6.918;2022-10-15T04:30:37;100099.56;;;14.29;100.00
27705;BME280;15109;50.992;6.918;2022-10-15T04:34:01;100090.25;;;14.30;100.00
27705;BME280;15109;50.992;6.918;2022-10-15T04:37:23;100077.75;;;14.34;100.00
27705;BME280;15109;50.992;6.918;2022-10-15T04:40:44;100076.91;;;14.33;100.00
27705;BME280;15109;50.992;6.918;2022-10-15T04:44:06;100070.41;;;14.28;100.00
27705;BME280;15109;50.992;6.918;2022-10-15T04:47:27;100078.03;;;14.26;100.00
27705;BME280;15109;50.992;6.918;2022-10-15T04:51:12;100073.22;;;14.21;100.00
27705;BME280;15109;50.992;6.918;2022-10-15T04:54:52;100081.94;;;14.18;100.00
27705;BME280;15109;50.992;6.918;2022-10-15T04:58:13;100084.72;;;14.12;100.00
27705;BME280;15109;50.992;6.918;2022-10-15T05:01:34;100084.78;;;14.05;100.00
27705;BME280;15109;50.992;6.918;2022-10-15T05:05:02;100096.47;;;14.00;100.00
27705;BME280;15109;50.992;6.918;2022-10-15T05:08:23;100089.06;;;14.01;100.00
27705;BME280;15109;50.992;6.918;2022-10-15T05:12:04;100089.28;;;13.99;100.00
27705;BME280;15109;50.992;6.918;2022-10-15T05:15:25;100088.22;;;14.00;100.00
27705;BME280;15109;50.992;6.918;2022-10-15T05:18:49;100094.09;;;14.04;100.00
27705;BME280;15109;50.992;6.918;2022-10-15T05:22:12;100088.97;;;14.07;100.00
27705;BME280;15109;50.992;6.918;2022-10-15T05:25:39;100096.25;;;14.02;100.00
27705;BME280;15109;50.992;6.918;2022-10-15T05:29:00;100097.78;;;13.91;100.00
27705;BME280;15109;50.992;6.918;2022-10-15T05:32:24;100101.22;;;13.87;100.00
27705;BME280;15109;50.992;6.918;2022-10-15T05:35:46;100104.63;;;13.82;100.00
27705;BME280;15109;50.992;6.918;2022-10-15T05:39:07;100094.19;;;13.91;100.00
27705;BME280;15109;50.992;6.918;2022-10-15T05:42:35;100096.56;;;13.87;100.00
27705;BME280;15109;50.992;6.918;2022-10-15T05:45:56;100103.41;;;13.78;100.00
27705;BME280;15109;50.992;6.918;2022-10-15T05:49:17;100108.78;;;13.67;100.00
27705;BME280;15109;50.992;6.918;2022-10-15T05:52:50;100110.50;;;13.61;100.00
27705;BME280;15109;50.992;6.918;2022-10-15T05:56:26;100102.03;;;13.62;100.00
27705;BME280;15109;50.992;6.918;2022-10-15T05:59:47;100110.69;;;13.59;100.00
27705;BME280;15109;50.992;6.918;2022-10-15T06:03:12;100113.91;;;13.56;100.00
27705;BME280;15109;50.992;6.918;2022-10-15T06:06:36;100116.84;;;13.55;100.00
27705;BME280;15109;50.992;6.918;2022-10-15T06:09:57;100110.09;;;13.57;100.00
27705;BME280;15109;50.992;6.918;2022-10-15T06:13:22;100112.84;;;13.57;100.00
27705;BME280;15109;50.992;6.918;2022-10-15T06:16:43;100120.06;;;13.52;100.00
27705;BME280;15109;50.992;6.918;2022-10-15T06:20:04;100116.91;;;13.48;100.00
27705;BME280;15109;50.992;6.918;2022-10-15T06:23:26;100125.59;;;13.45;100.00
27705;BME280;15109;50.992;6.918;2022-10-15T06:26:47;100127.50;;;13.38;100.00
27705;BME280;15109;50.992;6.918;2022-10-15T06:30:08;100121.84;;;13.33;100.00
27705;BME280;15109;50.992;6.918;2022-10-15T06:33:30;100131.56;;;13.29;100.00
27705;BME280;15109;50.992;6.918;2022-10-15T06:36:51;100133.91;;;13.26;100.00
27705;BME280;15109;50.992;6.918;2022-10-15T06:40:12;100134.38;;;13.23;100.00
27705;BME280;15109;50.992;6.918;2022-10-15T06:43:36;100144.91;;;13.26;100.00
27705;BME280;15109;50.992;6.918;2022-10-15T06:46:57;100141.50;;;13.30;100.00
27705;BME280;15109;50.992;6.918;2022-10-15T06:50:18;100133.00;;;13.38;100.00
27705;BME280;15109;50.992;6.918;2022-10-15T06:53:39;100134.91;;;13.38;100.00
27705;BME280;15109;50.992;6.918;2022-10-15T06:57:02;100132.41;;;13.36;100.00
27705;BME280;15109;50.992;6.918;2022-10-15T07:00:24;100140.38;;;13.44;100.00
27705;BME280;15109;50.992;6.918;2022-10-15T07:03:48;100138.03;;;13.48;100.00
27705;BME280;15109;50.992;6.918;2022-10-15T07:07:10;100139.66;;;13.55;100.00
27705;BME280;15109;50.992;6.918;2022-10-15T07:10:31;100144.03;;;13.70;100.00
27705;BME280;15109;50.992;6.918;2022-10-15T07:13:52;100139.97;;;13.79;100.00
27705;BME280;15109;50.992;6.918;2022-10-15T07:17:15;100140.53;;;13.87;100.00
27705;BME280;15109;50.992;6.918;2022-10-15T07:20:36;100139.88;;;13.92;100.00
27705;BME280;15109;50.992;6.918;2022-10-15T07:23:57;100138.28;;;14.02;100.00
27705;BME280;15109;50.992;6.918;2022-10-15T07:27:20;100142.44;;;14.12;100.00
27705;BME280;15109;50.992;6.918;2022-10-15T07:30:41;100137.97;;;14.17;100.00
27705;BME280;15109;50.992;6.918;2022-10-15T07:34:02;100139.94;;;14.35;100.00
27705;BME280;15109;50.992;6.918;2022-10-15T07:37:23;100133.13;;;14.44;100.00
27705;BME280;15109;50.992;6.918;2022-10-15T07:40:44;100135.78;;;14.50;100.00
27705;BME280;15109;50.992;6.918;2022-10-15T07:44:06;100128.47;;;14.63;100.00
27705;BME280;15109;50.992;6.918;2022-10-15T07:47:27;100132.47;;;14.67;100.00
27705;BME280;15109;50.992;6.918;2022-10-15T07:50:59;100122.38;;;14.79;100.00
27705;BME280;15109;50.992;6.918;2022-10-15T07:54:31;100117.03;;;14.84;100.00
27705;BME280;15109;50.992;6.918;2022-10-15T07:57:56;100114.66;;;14.87;100.00
27705;BME280;15109;50.992;6.918;2022-10-15T08:01:19;100101.88;;;14.93;100.00
27705;BME280;15109;50.992;6.918;2022-10-15T08:04:40;100098.44;;;14.97;100.00
27705;BME280;15109;50.992;6.918;2022-10-15T08:08:02;100095.69;;;14.97;100.00
27705;BME280;15109;50.992;6.918;2022-10-15T08:11:23;100090.56;;;15.01;100.00
27705;BME280;15109;50.992;6.918;2022-10-15T08:14:48;100078.41;;;15.09;100.00
27705;BME280;15109;50.992;6.918;2022-10-15T08:18:09;100081.16;;;15.09;100.00
27705;BME280;15109;50.992;6.918;2022-10-15T08:21:30;100095.50;;;15.11;100.00
27705;BME280;15109;50.992;6.918;2022-10-15T08:24:51;100083.81;;;15.15;100.00
27705;BME280;15109;50.992;6.918;2022-10-15T08:28:12;100082.97;;;15.15;100.00
27705;BME280;15109;50.992;6.918;2022-10-15T08:31:33;100081.34;;;15.25;100.00
27705;BME280;15109;50.992;6.918;2022-10-15T08:34:55;100076.13;;;15.35;100.00
27705;BME280;15109;50.992;6.918;2022-10-15T08:38:16;100082.84;;;15.39;100.00
27705;BME280;15109;50.992;6.918;2022-10-15T08:41:41;100079.63;;;15.42;100.00
27705;BME280;15109;50.992;6.918;2022-10-15T08:45:30;100079.78;;;15.48;100.00
27705;BME280;15109;50.992;6.918;2022-10-15T08:48:53;100076.56;;;15.51;100.00
27705;BME280;15109;50.992;6.918;2022-10-15T08:56:19;100080.56;;;15.66;100.00
27705;BME280;15109;50.992;6.918;2022-10-15T08:59:51;100079.75;;;15.66;100.00
27705;BME280;15109;50.992;6.918;2022-10-15T09:03:36;100079.25;;;15.69;100.00
27705;BME280;15109;50.992;6.918;2022-10-15T09:07:13;100082.50;;;15.66;100.00
27705;BME280;15109;50.992;6.918;2022-10-15T09:14:10;100080.69;;;15.71;100.00
27705;BME280;15109;50.992;6.918;2022-10-15T09:17:32;100080.84;;;15.76;100.00
27705;BME280;15109;50.992;6.918;2022-10-15T09:20:57;100088.06;;;15.89;100.00
27705;BME280;15109;50.992;6.918;2022-10-15T09:24:23;100078.84;;;15.95;100.00
27705;BME280;15109;50.992;6.918;2022-10-15T09:27:50;100085.78;;;15.98;100.00
27705;BME280;15109;50.992;6.918;2022-10-15T09:31:14;100073.56;;;16.05;100.00
27705;BME280;15109;50.992;6.918;2022-10-15T09:35:03;100071.28;;;16.14;100.00
27705;BME280;15109;50.992;6.918;2022-10-15T09:42:34;100069.97;;;16.40;100.00
27705;BME280;15109;50.992;6.918;2022-10-15T09:45:56;100079.97;;;16.52;100.00
27705;BME280;15109;50.992;6.918;2022-10-15T09:49:27;100062.56;;;16.52;100.00
27705;BME280;15109;50.992;6.918;2022-10-15T09:52:56;100067.34;;;16.56;100.00
27705;BME280;15109;50.992;6.918;2022-10-15T09:56:31;100067.47;;;16.50;100.00
27705;BME280;15109;50.992;6.918;2022-10-15T09:59:57;100061.72;;;16.63;100.00
27705;BME280;15109;50.992;6.918;2022-10-15T10:03:22;100066.03;;;16.59;100.00
27705;BME280;15109;50.992;6.918;2022-10-15T10:06:50;100061.59;;;16.58;100.00
27705;BME280;15109;50.992;6.918;2022-10-15T10:10:23;100056.56;;;16.66;100.00
27705;BME280;15109;50.992;6.918;2022-10-15T10:13:52;100055.72;;;16.66;100.00
27705;BME280;15109;50.992;6.918;2022-10-15T10:17:25;100049.13;;;16.67;100.00
27705;BME280;15109;50.992;6.918;2022-10-15T10:21:03;100042.38;;;16.74;100.00
27705;BME280;15109;50.992;6.918;2022-10-15T10:24:26;100045.50;;;16.78;100.00
27705;BME280;15109;50.992;6.918;2022-10-15T10:27:50;100044.41;;;16.79;100.00
27705;BME280;15109;50.992;6.918;2022-10-15T10:31:11;100046.53;;;16.89;100.00
27705;BME280;15109;50.992;6.918;2022-10-15T10:34:33;100044.44;;;17.07;100.00
27705;BME280;15109;50.992;6.918;2022-10-15T10:37:55;100036.72;;;17.21;100.00
27705;BME280;15109;50.992;6.918;2022-10-15T10:41:16;100036.78;;;17.26;100.00
27705;BME280;15109;50.992;6.918;2022-10-15T10:44:41;100034.56;;;17.40;100.00
27705;BME280;15109;50.992;6.918;2022-10-15T10:48:21;100035.19;;;17.42;100.00
27705;BME280;15109;50.992;6.918;2022-10-15T10:51:48;100031.66;;;17.46;100.00
27705;BME280;15109;50.992;6.918;2022-10-15T10:55:16;100029.47;;;17.48;100.00
27705;BME280;15109;50.992;6.918;2022-10-15T10:58:38;100025.63;;;17.49;100.00
27705;BME280;15109;50.992;6.918;2022-10-15T11:01:59;100025.97;;;17.53;100.00
27705;BME280;15109;50.992;6.918;2022-10-15T11:05:28;100026.81;;;17.53;100.00
27705;BME280;15109;50.992;6.918;2022-10-15T11:16:00;100014.63;;;17.83;100.00
27705;BME280;15109;50.992;6.918;2022-10-15T11:20:08;100011.63;;;17.84;100.00
27705;BME280;15109;50.992;6.918;2022-10-15T11:30:04;100004.66;;;17.98;100.00
27705;BME280;15109;50.992;6.918;2022-10-15T11:33:55;100004.06;;;17.96;100.00
27705;BME280;15109;50.992;6.918;2022-10-15T11:56:17;100011.59;;;18.18;100.00
27705;BME280;15109;50.992;6.918;2022-10-15T11:59:48;100007.50;;;18.20;100.00
27705;BME280;15109;50.992;6.918;2022-10-15T12:03:18;100004.28;;;18.28;100.00
27705;BME280;15109;50.992;6.918;2022-10-15T12:06:52;99996.84;;;18.29;100.00
27705;BME280;15109;50.992;6.918;2022-10-15T12:10:37;100001.41;;;18.40;100.00
27705;BME280;15109;50.992;6.918;2022-10-15T12:24:50;99991.53;;;18.87;100.00
27705;BME280;15109;50.992;6.918;2022-10-15T12:28:16;99982.84;;;18.79;100.00
27705;BME280;15109;50.992;6.918;2022-10-15T12:31:47;99966.47;;;18.77;100.00
27705;BME280;15109;50.992;6.918;2022-10-15T12:38:36;99980.91;;;18.79;100.00
27705;BME280;15109;50.992;6.918;2022-10-15T12:41:59;99986.47;;;18.79;100.00
27705;BME280;15109;50.992;6.918;2022-10-15T12:45:32;99979.75;;;18.75;100.00
27705;BME280;15109;50.992;6.918;2022-10-15T12:48:54;99980.59;;;18.76;100.00
27705;BME280;15109;50.992;6.918;2022-10-15T12:56:21;99991.00;;;18.90;100.00
27705;BME280;15109;50.992;6.918;2022-10-15T13:03:37;99983.72;;;19.06;100.00
27705;BME280;15109;50.992;6.918;2022-10-15T13:07:02;99980.22;;;19.16;100.00
27705;BME280;15109;50.992;6.918;2022-10-15T13:10:37;99975.63;;;19.26;100.00
27705;BME280;15109;50.992;6.918;2022-10-15T13:17:49;99966.56;;;19.36;100.00
27705;BME280;15109;50.992;6.918;2022-10-15T13:21:13;99967.91;;;19.33;100.00
27705;BME280;15109;50.992;6.918;2022-10-15T13:24:40;99969.03;;;19.32;100.00
27705;BME280;15109;50.992;6.918;2022-10-15T13:28:40;99973.81;;;19.42;100.00
27705;BME280;15109;50.992;6.918;2022-10-15T13:32:02;99976.13;;;19.45;100.00
27705;BME280;15109;50.992;6.918;2022-10-15T13:35:30;99970.84;;;19.43;100.00
27705;BME280;15109;50.992;6.918;2022-10-15T13:38:56;99976.19;;;19.50;100.00
27705;BME280;15109;50.992;6.918;2022-10-15T13:42:22;99985.53;;;19.44;100.00
27705;BME280;15109;50.992;6.918;2022-10-15T13:45:53;99992.09;;;19.38;100.00
27705;BME280;15109;50.992;6.918;2022-10-15T13:49:16;99975.78;;;19.41;100.00
27705;BME280;15109;50.992;6.918;2022-10-15T13:52:40;99981.69;;;19.45;100.00
27705;BME280;15109;50.992;6.918;2022-10-15T13:56:25;99989.41;;;19.43;100.00
27705;BME280;15109;50.992;6.918;2022-10-15T13:59:46;99995.13;;;19.36;100.00
27705;BME280;15109;50.992;6.918;2022-10-15T14:03:16;99975.75;;;19.36;100.00
27705;BME280;15109;50.992;6.918;2022-10-15T14:06:38;99975.41;;;19.33;100.00
27705;BME280;15109;50.992;6.918;2022-10-15T14:09:59;99970.06;;;19.26;100.00
27705;BME280;15109;50.992;6.918;2022-10-15T14:13:20;99970.63;;;19.23;100.00
27705;BME280;15109;50.992;6.918;2022-10-15T14:16:45;99982.31;;;19.30;100.00
27705;BME280;15109;50.992;6.918;2022-10-15T14:20:14;99977.38;;;19.37;100.00
27705;BME280;15109;50.992;6.918;2022-10-15T14:23:41;99980.88;;;19.50;100.00
27705;BME280;15109;50.992;6.918;2022-10-15T14:27:20;99980.22;;;19.42;100.00
27705;BME280;15109;50.992;6.918;2022-10-15T14:30:42;99980.56;;;19.46;100.00
27705;BME280;15109;50.992;6.918;2022-10-15T14:34:23;99978.13;;;19.55;100.00
27705;BME280;15109;50.992;6.918;2022-10-15T14:37:45;99972.03;;;19.53;100.00
27705;BME280;15109;50.992;6.918;2022-10-15T14:44:47;99995.19;;;19.41;100.00
27705;BME280;15109;50.992;6.918;2022-10-15T14:48:20;100005.66;;;19.34;100.00
27705;BME280;15109;50.992;6.918;2022-10-15T14:51:42;99998.41;;;19.33;100.00
27705;BME280;15109;50.992;6.918;2022-10-15T14:55:04;100000.09;;;19.34;100.00
27705;BME280;15109;50.992;6.918;2022-10-15T14:58:32;100001.19;;;19.33;100.00
27705;BME280;15109;50.992;6.918;2022-10-15T15:01:59;99997.25;;;19.29;100.00
27705;BME280;15109;50.992;6.918;2022-10-15T15:05:22;99994.25;;;19.31;100.00
27705;BME280;15109;50.992;6.918;2022-10-15T15:08:44;99979.97;;;19.17;100.00
27705;BME280;15109;50.992;6.918;2022-10-15T15:12:16;99977.06;;;19.07;100.00
27705;BME280;15109;50.992;6.918;2022-10-15T15:15:40;100025.22;;;19.01;100.00
27705;BME280;15109;50.992;6.918;2022-10-15T15:19:07;100043.31;;;18.65;100.00
27705;BME280;15109;50.992;6.918;2022-10-15T15:22:29;100052.25;;;18.17;100.00
27705;BME280;15109;50.992;6.918;2022-10-15T15:25:54;100058.97;;;18.04;100.00
27705;BME280;15109;50.992;6.918;2022-10-15T15:29:15;100061.41;;;17.84;100.00
27705;BME280;15109;50.992;6.918;2022-10-15T15:32:36;100067.44;;;17.64;100.00
27705;BME280;15109;50.992;6.918;2022-10-15T15:36:02;100065.84;;;17.57;100.00
27705;BME280;15109;50.992;6.918;2022-10-15T15:39:29;100070.38;;;17.46;100.00
27705;BME280;15109;50.992;6.918;2022-10-15T15:42:50;100072.41;;;17.39;100.00
27705;BME280;15109;50.992;6.918;2022-10-15T15:46:12;100079.28;;;17.37;100.00
27705;BME280;15109;50.992;6.918;2022-10-15T15:49:33;100091.09;;;17.32;100.00
27705;BME280;15109;50.992;6.918;2022-10-15T15:53:00;100078.00;;;17.28;100.00
27705;BME280;15109;50.992;6.918;2022-10-15T15:56:30;100091.31;;;17.31;100.00
27705;BME280;15109;50.992;6.918;2022-10-15T15:59:54;100096.50;;;17.27;100.00
27705;BME280;15109;50.992;6.918;2022-10-15T16:03:15;100096.16;;;17.23;100.00
27705;BME280;15109;50.992;6.918;2022-10-15T16:06:37;100100.28;;;17.21;100.00
27705;BME280;15109;50.992;6.918;2022-10-15T16:09:58;100095.81;;;17.20;100.00
27705;BME280;15109;50.992;6.918;2022-10-15T16:13:19;100099.06;;;17.17;100.00
27705;BME280;15109;50.992;6.918;2022-10-15T16:16:41;100099.31;;;17.15;100.00
27705;BME280;15109;50.992;6.918;2022-10-15T16:20:03;100097.28;;;17.11;100.00
27705;BME280;15109;50.992;6.918;2022-10-15T16:23:24;100108.91;;;17.13;100.00
27705;BME280;15109;50.992;6.918;2022-10-15T16:26:45;100114.94;;;17.10;100.00
27705;BME280;15109;50.992;6.918;2022-10-15T16:30:06;100119.88;;;17.08;100.00
27705;BME280;15109;50.992;6.918;2022-10-15T16:33:27;100108.84;;;16.96;100.00
27705;BME280;15109;50.992;6.918;2022-10-15T16:36:48;100124.94;;;16.99;100.00
27705;BME280;15109;50.992;6.918;2022-10-15T16:40:10;100130.69;;;16.98;100.00
27705;BME280;15109;50.992;6.918;2022-10-15T16:43:32;100136.25;;;16.86;100.00
27705;BME280;15109;50.992;6.918;2022-10-15T16:46:53;100134.44;;;16.80;100.00
27705;BME280;15109;50.992;6.918;2022-10-15T16:50:14;100142.59;;;16.75;100.00
27705;BME280;15109;50.992;6.918;2022-10-15T16:53:37;100150.03;;;16.74;100.00
27705;BME280;15109;50.992;6.918;2022-10-15T16:56:58;100155.94;;;16.78;100.00
27705;BME280;15109;50.992;6.918;2022-10-15T17:00:19;100171.41;;;16.79;100.00
27705;BME280;15109;50.992;6.918;2022-10-15T17:03:41;100181.63;;;16.78;100.00
27705;BME280;15109;50.992;6.918;2022-10-15T17:07:02;100188.97;;;16.73;100.00
27705;BME280;15109;50.992;6.918;2022-10-15T17:10:23;100206.47;;;16.78;100.00
27705;BME280;15109;50.992;6.918;2022-10-15T17:13:46;100204.94;;;16.83;100.00
27705;BME280;15109;50.992;6.918;2022-10-15T17:17:07;100218.34;;;16.67;100.00
27705;BME280;15109;50.992;6.918;2022-10-15T17:20:29;100225.06;;;16.60;100.00
27705;BME280;15109;50.992;6.918;2022-10-15T17:23:52;100232.28;;;16.61;100.00
27705;BME280;15109;50.992;6.918;2022-10-15T17:27:20;100243.69;;;16.64;100.00
27705;BME280;15109;50.992;6.918;2022-10-15T17:30:41;100248.47;;;16.57;100.00
27705;BME280;15109;50.992;6.918;2022-10-15T17:34:06;100255.50;;;16.53;100.00
27705;BME280;15109;50.992;6.918;2022-10-15T17:37:27;100277.22;;;16.50;100.00
27705;BME280;15109;50.992;6.918;2022-10-15T17:40:48;100288.38;;;16.43;100.00
27705;BME280;15109;50.992;6.918;2022-10-15T17:44:10;100292.06;;;16.37;100.00
27705;BME280;15109;50.992;6.918;2022-10-15T17:47:31;100305.25;;;16.35;100.00
27705;BME280;15109;50.992;6.918;2022-10-15T17:50:53;100300.66;;;16.29;100.00
27705;BME280;15109;50.992;6.918;2022-10-15T17:54:14;100298.13;;;16.27;100.00
27705;BME280;15109;50.992;6.918;2022-10-15T17:57:36;100288.06;;;16.21;100.00
27705;BME280;15109;50.992;6.918;2022-10-15T18:00:57;100292.34;;;16.17;100.00
27705;BME280;15109;50.992;6.918;2022-10-15T18:04:18;100289.81;;;16.16;100.00
27705;BME280;15109;50.992;6.918;2022-10-15T18:07:39;100301.41;;;16.06;100.00
27705;BME280;15109;50.992;6.918;2022-10-15T18:11:00;100307.41;;;16.03;100.00
27705;BME280;15109;50.992;6.918;2022-10-15T18:14:22;100309.16;;;15.98;100.00
27705;BME280;15109;50.992;6.918;2022-10-15T18:17:43;100319.44;;;15.91;100.00
27705;BME280;15109;50.992;6.918;2022-10-15T18:21:12;100309.63;;;15.95;100.00
27705;BME280;15109;50.992;6.918;2022-10-15T18:24:34;100321.28;;;15.78;100.00
27705;BME280;15109;50.992;6.918;2022-10-15T18:27:58;100316.09;;;15.70;100.00
27705;BME280;15109;50.992;6.918;2022-10-15T18:31:20;100318.69;;;15.65;100.00
27705;BME280;15109;50.992;6.918;2022-10-15T18:34:41;100307.13;;;15.57;100.00
27705;BME280;15109;50.992;6.918;2022-10-15T18:38:03;100312.69;;;15.50;100.00
27705;BME280;15109;50.992;6.918;2022-10-15T18:41:26;100318.59;;;15.54;100.00
27705;BME280;15109;50.992;6.918;2022-10-15T18:44:47;100320.66;;;15.58;100.00
27705;BME280;15109;50.992;6.918;2022-10-15T18:48:09;100315.09;;;15.65;100.00
27705;BME280;15109;50.992;6.918;2022-10-15T18:51:30;100318.22;;;15.68;100.00
27705;BME280;15109;50.992;6.918;2022-10-15T18:54:51;100329.47;;;15.67;100.00
27705;BME280;15109;50.992;6.918;2022-10-15T18:58:12;100328.56;;;15.73;100.00
27705;BME280;15109;50.992;6.918;2022-10-15T19:01:38;100326.88;;;15.72;100.00
27705;BME280;15109;50.992;6.918;2022-10-15T19:05:01;100324.13;;;15.72;100.00
27705;BME280;15109;50.992;6.918;2022-10-15T19:08:22;100317.31;;;15.56;100.00
27705;BME280;15109;50.992;6.918;2022-10-15T19:11:45;100337.09;;;15.47;100.00
27705;BME280;15109;50.992;6.918;2022-10-15T19:15:06;100346.94;;;15.36;100.00